Time;durP1;ratioP1;P1;durP2;ratioP2;P2;SDS_P1;SDS_P2;PMS_P1;PMS_P2;Temp;Humidity;BMP_temperature;BMP_pressure;BME280_temperature;BME280_humidity;BME280_pressure;Samples;Min_cycle;Max_cycle;Signal;HPM_P1;HPM_P2
2021/01/01 00:01:28;;;;;;;36.53;13.07;;;;;;;;;;4957203;28;20071;-78
2021/01/01 00:03:58;;;;;;;33.95;12.82;;;;;;;;;;4958808;28;20444;-79
2021/01/01 00:06:25;;;;;;;34.63;13.35;;;;;;;;;;4966578;28;20137;-78
2021/01/01 00:08:51;;;;;;;36.25;14.43;;;;;;;;;;4957274;28;20137;-78
2021/01/01 00:11:19;;;;;;;36.80;15.07;;;;;;;;;;4957073;28;20493;-79
2021/01/01 00:13:46;;;;;;;31.02;13.73;;;;;;;;;;4960334;28;20150;-78
2021/01/01 00:16:13;;;;;;;30.13;13.43;;;;;;;;;;4961831;28;20082;-78
2021/01/01 00:18:41;;;;;;;35.42;14.77;;;;;;;;;;4961531;28;20055;-79
2021/01/01 00:21:08;;;;;;;39.70;15.35;;;;;;;;;;4965333;28;20138;-79
2021/01/01 00:23:37;;;;;;;40.58;16.23;;;;;;;;;;4961038;28;20058;-78
2021/01/01 00:26:11;;;;;;;33.35;15.43;;;;;;;;;;4955105;28;20043;-78
2021/01/01 00:28:45;;;;;;;35.75;15.13;;;;;;;;;;4959158;28;20061;-78
2021/01/01 00:31:16;;;;;;;36.15;15.93;;;;;;;;;;4961881;28;20051;-78
2021/01/01 00:33:42;;;;;;;35.78;15.63;;;;;;;;;;4953776;28;20508;-79
2021/01/01 00:36:09;;;;;;;45.97;18.90;;;;;;;;;;4971570;28;20042;-79
2021/01/01 00:38:37;;;;;;;47.80;18.95;;;;;;;;;;4949958;28;20163;-78
2021/01/01 00:41:07;;;;;;;46.10;17.85;;;;;;;;;;4953626;28;20043;-78
2021/01/01 00:43:34;;;;;;;46.45;19.35;;;;;;;;;;4961159;28;20081;-78
2021/01/01 00:46:02;;;;;;;44.70;17.30;;;;;;;;;;4958718;28;20560;-79
2021/01/01 00:48:31;;;;;;;50.00;18.48;;;;;;;;;;4950889;28;20043;-79
2021/01/01 00:50:58;;;;;;;43.78;16.75;;;;;;;;;;4967598;28;20115;-78
2021/01/01 00:53:39;;;;;;;41.03;15.95;;;;;;;;;;4957657;28;20078;-78
2021/01/01 00:56:05;;;;;;;37.28;16.20;;;;;;;;;;4957787;28;20070;-79
2021/01/01 00:58:32;;;;;;;39.13;16.13;;;;;;;;;;4959150;28;20142;-79
2021/01/01 01:00:59;;;;;;;36.60;16.38;;;;;;;;;;4958483;28;20051;-79
2021/01/01 01:03:25;;;;;;;49.63;17.90;;;;;;;;;;4952363;28;20075;-78
2021/01/01 01:05:52;;;;;;;42.35;16.83;;;;;;;;;;4962299;28;20074;-78
2021/01/01 01:08:19;;;;;;;43.22;17.20;;;;;;;;;;4951967;28;20048;-79
2021/01/01 01:10:45;;;;;;;37.15;15.85;;;;;;;;;;4962377;28;20094;-79
2021/01/01 01:13:12;;;;;;;42.72;17.02;;;;;;;;;;4960559;28;20043;-78
2021/01/01 01:15:39;;;;;;;38.67;15.00;;;;;;;;;;4955605;28;20536;-79
2021/01/01 01:18:18;;;;;;;42.90;15.23;;;;;;;;;;4961358;28;20074;-78
2021/01/01 01:20:44;;;;;;;39.95;16.77;;;;;;;;;;4962525;28;20516;-78
2021/01/01 01:23:13;;;;;;;40.35;16.25;;;;;;;;;;4969894;28;20063;-78
2021/01/01 01:25:39;;;;;;;37.65;16.13;;;;;;;;;;4969073;28;20117;-78
2021/01/01 01:28:06;;;;;;;41.08;15.95;;;;;;;;;;4966930;28;20094;-78
2021/01/01 01:30:33;;;;;;;41.53;17.48;;;;;;;;;;4967085;28;20528;-78
2021/01/01 01:32:59;;;;;;;37.17;15.75;;;;;;;;;;4958431;28;20141;-78
2021/01/01 01:35:27;;;;;;;37.42;16.60;;;;;;;;;;4971640;28;20047;-79
2021/01/01 01:37:54;;;;;;;39.33;16.55;;;;;;;;;;4953249;28;20101;-78
2021/01/01 01:40:20;;;;;;;45.50;17.70;;;;;;;;;;4967056;28;20059;-79
2021/01/01 01:42:47;;;;;;;44.55;16.65;;;;;;;;;;4968266;28;20149;-78
2021/01/01 01:45:14;;;;;;;39.67;15.80;;;;;;;;;;4966110;28;20136;-78
2021/01/01 01:47:42;;;;;;;41.30;16.38;;;;;;;;;;4966582;28;20126;-78
2021/01/01 01:50:09;;;;;;;39.60;17.17;;;;;;;;;;4961636;28;20074;-79
2021/01/01 01:52:36;;;;;;;44.75;16.13;;;;;;;;;;4968282;28;20074;-78
2021/01/01 01:55:03;;;;;;;41.72;16.90;;;;;;;;;;4966096;28;20089;-78
2021/01/01 01:57:31;;;;;;;45.00;15.45;;;;;;;;;;4972899;28;20051;-78
2021/01/01 02:00:01;;;;;;;39.17;16.23;;;;;;;;;;4967793;28;20047;-78
2021/01/01 02:02:27;;;;;;;39.70;15.50;;;;;;;;;;4958461;28;20074;-78
2021/01/01 02:04:54;;;;;;;45.05;17.00;;;;;;;;;;4965708;28;20106;-77
2021/01/01 02:07:21;;;;;;;43.15;16.92;;;;;;;;;;4972190;28;20046;-78
2021/01/01 02:09:47;;;;;;;39.22;17.13;;;;;;;;;;4965661;28;20055;-77
2021/01/01 02:12:17;;;;;;;46.78;17.58;;;;;;;;;;4972303;28;20120;-78
2021/01/01 02:14:44;;;;;;;46.85;17.52;;;;;;;;;;4967571;28;20458;-78
2021/01/01 02:17:10;;;;;;;45.58;16.17;;;;;;;;;;4965207;28;20074;-78
2021/01/01 02:19:37;;;;;;;44.75;16.55;;;;;;;;;;4965195;28;20058;-78
2021/01/01 02:22:04;;;;;;;47.65;17.98;;;;;;;;;;4965338;28;20086;-78
2021/01/01 02:24:31;;;;;;;51.15;17.73;;;;;;;;;;4968653;28;20053;-78
2021/01/01 02:26:58;;;;;;;47.08;16.67;;;;;;;;;;4966098;28;20043;-78
2021/01/01 02:29:24;;;;;;;52.08;17.23;;;;;;;;;;4966152;28;20047;-78
2021/01/01 02:31:51;;;;;;;41.03;16.83;;;;;;;;;;4964054;28;20755;-78
2021/01/01 02:34:18;;;;;;;50.35;17.23;;;;;;;;;;4948111;28;20489;-78
2021/01/01 02:36:45;;;;;;;46.95;17.23;;;;;;;;;;4962377;28;20489;-78
2021/01/01 02:39:12;;;;;;;50.63;16.95;;;;;;;;;;4966144;28;20046;-78
2021/01/01 02:41:39;;;;;;;50.85;17.48;;;;;;;;;;4967490;28;20522;-78
2021/01/01 02:44:05;;;;;;;40.05;15.82;;;;;;;;;;4960292;28;20507;-78
2021/01/01 02:46:32;;;;;;;50.10;17.25;;;;;;;;;;4965032;28;20072;-78
2021/01/01 02:48:59;;;;;;;46.35;17.52;;;;;;;;;;4966296;28;20428;-78
2021/01/01 02:51:25;;;;;;;43.70;16.65;;;;;;;;;;4958598;28;20073;-78
2021/01/01 02:53:52;;;;;;;43.72;17.33;;;;;;;;;;4965708;28;20125;-78
2021/01/01 02:56:19;;;;;;;47.38;17.42;;;;;;;;;;4965462;28;20069;-78
2021/01/01 02:58:45;;;;;;;53.33;18.13;;;;;;;;;;4963788;28;20142;-77
2021/01/01 03:01:12;;;;;;;49.20;16.05;;;;;;;;;;4959670;28;20047;-78
2021/01/01 03:03:42;;;;;;;49.60;18.27;;;;;;;;;;4954918;28;20126;-78
2021/01/01 03:06:08;;;;;;;46.60;17.52;;;;;;;;;;4971075;28;20759;-78
2021/01/01 03:08:35;;;;;;;54.40;17.98;;;;;;;;;;4964367;28;20093;-78
2021/01/01 03:11:04;;;;;;;48.92;17.45;;;;;;;;;;4962318;28;20075;-78
2021/01/01 03:13:30;;;;;;;47.00;17.88;;;;;;;;;;4962770;28;20043;-78
2021/01/01 03:15:57;;;;;;;46.95;18.17;;;;;;;;;;4961832;28;20664;-78
2021/01/01 03:18:30;;;;;;;47.05;17.75;;;;;;;;;;4969331;28;20455;-78
2021/01/01 03:20:56;;;;;;;45.85;16.65;;;;;;;;;;4961931;28;20050;-79
2021/01/01 03:23:23;;;;;;;48.60;17.17;;;;;;;;;;4962423;28;20169;-78
2021/01/01 03:25:50;;;;;;;51.35;17.10;;;;;;;;;;4965860;28;20050;-78
2021/01/01 03:28:16;;;;;;;45.20;17.27;;;;;;;;;;4968311;28;20122;-78
2021/01/01 03:30:43;;;;;;;48.05;18.33;;;;;;;;;;4967622;28;20098;-78
2021/01/01 03:33:10;;;;;;;47.45;17.42;;;;;;;;;;4950093;28;20544;-78
2021/01/01 03:35:36;;;;;;;46.75;17.58;;;;;;;;;;4979762;28;20126;-78
2021/01/01 03:38:03;;;;;;;48.03;17.48;;;;;;;;;;4961206;28;20142;-78
2021/01/01 03:40:30;;;;;;;44.50;17.02;;;;;;;;;;4965732;28;20141;-78
2021/01/01 03:42:57;;;;;;;51.63;18.17;;;;;;;;;;4961804;28;20587;-77
2021/01/01 03:45:23;;;;;;;51.85;18.88;;;;;;;;;;4962251;28;20087;-78
2021/01/01 03:47:52;;;;;;;48.47;17.20;;;;;;;;;;4958556;28;20049;-77
2021/01/01 03:50:18;;;;;;;48.53;18.05;;;;;;;;;;4964389;28;20149;-78
2021/01/01 03:52:46;;;;;;;54.47;18.80;;;;;;;;;;4962250;28;20047;-77
2021/01/01 03:55:12;;;;;;;42.92;17.00;;;;;;;;;;4959312;28;20047;-78
2021/01/01 03:57:40;;;;;;;48.15;17.27;;;;;;;;;;4956910;28;20134;-78
2021/01/01 04:00:07;;;;;;;45.03;17.42;;;;;;;;;;4961699;28;20102;-77
2021/01/01 04:02:34;;;;;;;48.60;17.63;;;;;;;;;;4949801;28;20126;-78
2021/01/01 04:05:01;;;;;;;53.90;18.15;;;;;;;;;;4955879;28;20188;-77
2021/01/01 04:07:27;;;;;;;52.80;17.70;;;;;;;;;;4961925;28;20078;-78
2021/01/01 04:09:54;;;;;;;47.75;17.38;;;;;;;;;;4962482;28;20094;-77
2021/01/01 04:12:21;;;;;;;48.90;17.40;;;;;;;;;;4960852;28;20067;-77
2021/01/01 04:14:49;;;;;;;49.00;16.83;;;;;;;;;;4956195;28;20126;-77
2021/01/01 04:17:16;;;;;;;43.13;16.85;;;;;;;;;;4960691;28;20078;-78
2021/01/01 04:19:43;;;;;;;49.33;18.23;;;;;;;;;;4959004;28;20062;-78
2021/01/01 04:22:10;;;;;;;56.63;18.90;;;;;;;;;;4967005;28;20464;-77
2021/01/01 04:24:37;;;;;;;49.92;19.23;;;;;;;;;;4962776;28;20086;-77
2021/01/01 04:27:04;;;;;;;48.17;17.42;;;;;;;;;;4959168;28;20132;-77
2021/01/01 04:29:31;;;;;;;55.30;18.00;;;;;;;;;;4962163;28;20095;-77
2021/01/01 04:31:58;;;;;;;56.80;18.75;;;;;;;;;;4949127;28;20051;-77
2021/01/01 04:34:26;;;;;;;53.25;21.20;;;;;;;;;;4958202;28;20138;-77
2021/01/01 04:36:52;;;;;;;68.10;22.40;;;;;;;;;;4961553;28;20128;-77
2021/01/01 04:39:19;;;;;;;63.33;22.33;;;;;;;;;;4960707;28;20071;-78
2021/01/01 04:41:46;;;;;;;55.40;19.80;;;;;;;;;;4965224;28;20125;-78
2021/01/01 04:44:16;;;;;;;51.35;18.70;;;;;;;;;;4960385;28;20131;-78
2021/01/01 04:46:42;;;;;;;54.13;19.13;;;;;;;;;;4962525;28;20051;-78
2021/01/01 04:49:09;;;;;;;50.55;19.40;;;;;;;;;;4956082;28;20042;-78
2021/01/01 04:51:37;;;;;;;57.45;19.02;;;;;;;;;;4959723;28;20071;-78
2021/01/01 04:54:04;;;;;;;44.05;17.52;;;;;;;;;;4964556;28;20074;-78
2021/01/01 04:56:31;;;;;;;61.03;19.92;;;;;;;;;;4962952;28;20109;-78
2021/01/01 04:58:59;;;;;;;58.60;18.98;;;;;;;;;;4960055;28;20117;-78
2021/01/01 05:01:26;;;;;;;59.65;19.88;;;;;;;;;;4956035;28;20106;-78
2021/01/01 05:03:53;;;;;;;54.22;19.60;;;;;;;;;;4946713;28;20078;-78
2021/01/01 05:06:29;;;;;;;58.25;19.67;;;;;;;;;;4954192;28;20065;-78
2021/01/01 05:08:59;;;;;;;56.00;20.58;;;;;;;;;;4940715;28;20077;-78
2021/01/01 05:11:26;;;;;;;56.20;20.77;;;;;;;;;;4967994;28;20089;-78
2021/01/01 05:14:01;;;;;;;56.20;19.77;;;;;;;;;;4942750;28;20050;-79
2021/01/01 05:16:33;;;;;;;54.75;20.30;;;;;;;;;;4957181;28;20052;-78
2021/01/01 05:19:09;;;;;;;62.78;20.88;;;;;;;;;;4963556;28;20070;-79
2021/01/01 05:21:35;;;;;;;54.83;18.73;;;;;;;;;;4960857;28;20086;-79
2021/01/01 05:24:05;;;;;;;55.80;20.02;;;;;;;;;;4964650;28;20051;-78
2021/01/01 05:26:32;;;;;;;57.60;20.50;;;;;;;;;;4960859;28;20051;-78
2021/01/01 05:29:06;;;;;;;53.08;19.92;;;;;;;;;;4953888;28;20047;-78
2021/01/01 05:31:42;;;;;;;50.58;19.17;;;;;;;;;;4958897;28;20055;-79
2021/01/01 05:34:13;;;;;;;55.25;18.90;;;;;;;;;;4956420;28;20130;-78
2021/01/01 05:36:44;;;;;;;46.53;18.67;;;;;;;;;;4957816;28;20078;-78
2021/01/01 05:39:13;;;;;;;56.75;18.80;;;;;;;;;;4960559;28;20047;-78
2021/01/01 05:41:41;;;;;;;55.42;18.95;;;;;;;;;;4961479;28;20109;-78
2021/01/01 05:44:14;;;;;;;58.97;20.58;;;;;;;;;;4960315;28;20130;-78
2021/01/01 05:46:54;;;;;;;52.28;19.05;;;;;;;;;;4960629;28;20059;-78
2021/01/01 05:49:33;;;;;;;57.13;21.00;;;;;;;;;;4959133;28;20039;-78
2021/01/01 05:52:04;;;;;;;60.78;20.30;;;;;;;;;;4961039;28;20085;-78
2021/01/01 05:54:32;;;;;;;49.03;18.90;;;;;;;;;;4969209;28;20466;-78
2021/01/01 05:57:01;;;;;;;58.20;19.08;;;;;;;;;;4968100;28;20055;-78
2021/01/01 05:59:28;;;;;;;54.53;17.88;;;;;;;;;;4952861;28;20051;-78
2021/01/01 06:01:59;;;;;;;59.47;20.83;;;;;;;;;;4949321;28;20078;-78
2021/01/01 06:04:26;;;;;;;60.53;19.38;;;;;;;;;;4953802;28;20082;-78
2021/01/01 06:06:53;;;;;;;60.03;20.00;;;;;;;;;;4969021;28;20070;-77
2021/01/01 06:09:23;;;;;;;56.55;21.58;;;;;;;;;;4964288;28;20117;-78
2021/01/01 06:12:10;;;;;;;73.00;22.67;;;;;;;;;;4965277;28;20051;-77
2021/01/01 06:14:37;;;;;;;64.65;21.90;;;;;;;;;;4969273;28;20508;-78
2021/01/01 06:17:10;;;;;;;58.40;22.25;;;;;;;;;;4961111;28;20091;-78
2021/01/01 06:19:47;;;;;;;60.33;20.00;;;;;;;;;;4956872;28;20109;-78
2021/01/01 06:22:18;;;;;;;64.07;21.48;;;;;;;;;;4962061;28;20074;-78
2021/01/01 06:24:49;;;;;;;62.40;21.98;;;;;;;;;;4963303;28;20078;-77
2021/01/01 06:27:16;;;;;;;63.53;22.10;;;;;;;;;;4960890;28;20086;-78
2021/01/01 06:29:44;;;;;;;66.55;21.80;;;;;;;;;;4956905;28;20101;-79
2021/01/01 06:32:11;;;;;;;66.80;22.88;;;;;;;;;;4954091;28;20083;-79
2021/01/01 06:34:38;;;;;;;62.25;22.63;;;;;;;;;;4950678;28;20135;-79
2021/01/01 06:37:05;;;;;;;61.30;22.77;;;;;;;;;;4963557;28;20651;-79
2021/01/01 06:39:36;;;;;;;66.97;23.10;;;;;;;;;;4958302;28;20086;-79
2021/01/01 06:42:04;;;;;;;62.45;22.08;;;;;;;;;;4967099;28;20146;-78
2021/01/01 06:44:35;;;;;;;64.50;23.63;;;;;;;;;;4959739;28;20051;-78
2021/01/01 06:47:02;;;;;;;75.55;24.50;;;;;;;;;;4971843;28;20557;-79
2021/01/01 06:49:36;;;;;;;75.10;24.23;;;;;;;;;;4959528;28;20138;-79
2021/01/01 06:52:21;;;;;;;74.70;24.33;;;;;;;;;;4952778;28;20544;-79
2021/01/01 06:54:54;;;;;;;69.55;22.80;;;;;;;;;;4954491;28;20075;-80
2021/01/01 06:57:24;;;;;;;70.82;24.55;;;;;;;;;;4962916;28;20557;-79
2021/01/01 06:59:52;;;;;;;74.68;23.88;;;;;;;;;;4964752;28;20051;-79
2021/01/01 07:02:25;;;;;;;66.95;22.63;;;;;;;;;;4955364;28;20546;-79
2021/01/01 07:04:52;;;;;;;65.05;22.75;;;;;;;;;;4966767;28;20109;-78
2021/01/01 07:07:37;;;;;;;58.78;22.60;;;;;;;;;;4967239;28;20126;-79
2021/01/01 07:10:05;;;;;;;63.08;20.80;;;;;;;;;;4957596;28;20051;-78
2021/01/01 07:12:31;;;;;;;68.25;21.73;;;;;;;;;;4958237;28;20063;-79
2021/01/01 07:14:59;;;;;;;76.10;22.75;;;;;;;;;;4956800;28;20047;-79
2021/01/01 07:17:27;;;;;;;67.07;21.40;;;;;;;;;;4958850;28;20047;-79
2021/01/01 07:19:55;;;;;;;66.90;22.75;;;;;;;;;;4953893;28;20066;-78
2021/01/01 07:22:22;;;;;;;61.80;22.08;;;;;;;;;;4961606;28;20125;-79
2021/01/01 07:24:49;;;;;;;70.35;21.52;;;;;;;;;;4967895;28;20082;-78
2021/01/01 07:27:16;;;;;;;74.32;22.33;;;;;;;;;;4959961;28;20087;-79
2021/01/01 07:29:43;;;;;;;60.95;21.67;;;;;;;;;;4961587;28;20134;-79
2021/01/01 07:32:11;;;;;;;71.28;21.65;;;;;;;;;;4953387;28;20122;-78
2021/01/01 07:34:38;;;;;;;72.07;22.45;;;;;;;;;;4962114;28;20051;-79
2021/01/01 07:37:05;;;;;;;63.83;21.85;;;;;;;;;;4960143;28;20166;-79
2021/01/01 07:39:32;;;;;;;72.47;23.00;;;;;;;;;;4960784;28;20047;-79
2021/01/01 07:42:05;;;;;;;65.47;21.48;;;;;;;;;;4964011;28;20094;-79
2021/01/01 07:44:32;;;;;;;68.93;23.30;;;;;;;;;;4953986;28;20071;-79
2021/01/01 07:46:59;;;;;;;62.58;22.83;;;;;;;;;;4952362;28;20107;-79
2021/01/01 07:49:35;;;;;;;71.22;21.55;;;;;;;;;;4960137;28;20110;-78
2021/01/01 07:52:03;;;;;;;65.80;21.40;;;;;;;;;;4958317;28;20049;-79
2021/01/01 07:54:30;;;;;;;65.28;21.55;;;;;;;;;;4964301;28;20137;-79
2021/01/01 07:57:06;;;;;;;71.35;22.48;;;;;;;;;;4953505;28;20102;-79
2021/01/01 07:59:33;;;;;;;65.88;22.15;;;;;;;;;;4970323;28;20161;-80
2021/01/01 08:02:00;;;;;;;66.03;21.75;;;;;;;;;;4951704;28;20082;-79
2021/01/01 08:04:31;;;;;;;62.15;21.58;;;;;;;;;;4952031;28;20162;-78
2021/01/01 08:06:57;;;;;;;66.80;22.40;;;;;;;;;;4961158;28;20047;-78
2021/01/01 08:09:25;;;;;;;61.42;21.10;;;;;;;;;;4959894;28;20131;-78
2021/01/01 08:12:04;;;;;;;66.00;22.52;;;;;;;;;;4962170;28;20122;-78
2021/01/01 08:14:31;;;;;;;69.53;21.65;;;;;;;;;;4960378;28;20057;-78
2021/01/01 08:17:20;;;;;;;66.80;21.65;;;;;;;;;;4953463;28;20134;-79
2021/01/01 08:19:47;;;;;;;62.63;21.60;;;;;;;;;;4951490;28;20058;-78
2021/01/01 08:22:16;;;;;;;62.50;22.20;;;;;;;;;;4964671;28;20043;-78
2021/01/01 08:24:51;;;;;;;69.18;21.90;;;;;;;;;;4956948;28;20468;-78
2021/01/01 08:27:18;;;;;;;57.78;21.30;;;;;;;;;;4963124;28;20109;-78
2021/01/01 08:29:46;;;;;;;65.53;22.10;;;;;;;;;;4952858;28;20052;-78
2021/01/01 08:32:13;;;;;;;63.05;20.98;;;;;;;;;;4951218;28;20563;-78
2021/01/01 08:34:40;;;;;;;63.58;21.08;;;;;;;;;;4950484;28;20047;-78
2021/01/01 08:37:20;;;;;;;60.35;21.88;;;;;;;;;;4959712;28;20083;-78
2021/01/01 08:39:46;;;;;;;61.08;22.20;;;;;;;;;;4962091;28;20121;-78
2021/01/01 08:42:21;;;;;;;66.93;22.67;;;;;;;;;;4952709;28;20071;-79
2021/01/01 08:44:48;;;;;;;62.00;21.13;;;;;;;;;;4949777;28;20139;-79
2021/01/01 08:47:14;;;;;;;70.05;22.80;;;;;;;;;;4953372;28;20081;-79
2021/01/01 08:49:41;;;;;;;65.25;21.65;;;;;;;;;;4959034;28;20133;-79
2021/01/01 08:52:12;;;;;;;63.50;21.75;;;;;;;;;;4950884;28;20156;-79
2021/01/01 08:54:39;;;;;;;54.20;20.02;;;;;;;;;;4964599;28;20093;-80
2021/01/01 08:57:06;;;;;;;60.20;21.60;;;;;;;;;;4948296;28;20162;-79
2021/01/01 08:59:35;;;;;;;61.80;22.70;;;;;;;;;;4945971;28;20071;-79
2021/01/01 09:02:12;;;;;;;58.20;21.15;;;;;;;;;;4947386;28;20043;-79
2021/01/01 09:04:41;;;;;;;59.13;22.15;;;;;;;;;;4948840;28;20126;-78
2021/01/01 09:07:15;;;;;;;56.40;21.40;;;;;;;;;;4952573;28;20048;-79
2021/01/01 09:09:43;;;;;;;60.85;20.85;;;;;;;;;;4958622;28;20146;-79
2021/01/01 09:12:13;;;;;;;57.85;21.77;;;;;;;;;;4958213;28;20042;-79
2021/01/01 09:14:53;;;;;;;56.30;21.20;;;;;;;;;;4961792;28;20082;-79
2021/01/01 09:17:20;;;;;;;57.30;20.05;;;;;;;;;;4958438;28;20074;-78
2021/01/01 09:19:47;;;;;;;62.30;21.45;;;;;;;;;;4962785;28;20091;-78
2021/01/01 09:22:18;;;;;;;55.75;21.73;;;;;;;;;;4967888;28;20129;-78
2021/01/01 09:24:47;;;;;;;59.05;21.40;;;;;;;;;;4960904;28;20480;-78
2021/01/01 09:27:15;;;;;;;59.05;21.40;;;;;;;;;;4957737;28;20051;-78
2021/01/01 09:29:43;;;;;;;63.35;21.58;;;;;;;;;;4952776;28;20512;-79
2021/01/01 09:32:12;;;;;;;65.28;20.98;;;;;;;;;;4951984;28;20389;-79
2021/01/01 09:34:39;;;;;;;62.55;21.95;;;;;;;;;;4961570;28;20446;-79
2021/01/01 09:37:06;;;;;;;60.45;22.45;;;;;;;;;;4967172;28;20755;-78
2021/01/01 09:39:33;;;;;;;54.60;20.60;;;;;;;;;;4962012;28;20062;-79
2021/01/01 09:42:00;;;;;;;60.47;21.35;;;;;;;;;;4961311;28;20047;-79
2021/01/01 09:44:27;;;;;;;59.50;21.80;;;;;;;;;;4970395;28;20495;-78
2021/01/01 09:46:55;;;;;;;64.63;22.95;;;;;;;;;;4964488;28;20512;-78
2021/01/01 09:49:22;;;;;;;62.33;23.25;;;;;;;;;;4964320;28;20074;-79
2021/01/01 09:51:48;;;;;;;66.68;23.85;;;;;;;;;;4959963;28;20140;-78
2021/01/01 09:54:33;;;;;;;64.57;23.52;;;;;;;;;;4964417;28;20054;-79
2021/01/01 09:57:03;;;;;;;62.95;23.15;;;;;;;;;;4962490;28;20134;-79
2021/01/01 09:59:30;;;;;;;64.45;24.73;;;;;;;;;;4948940;28;20058;-78
2021/01/01 10:01:57;;;;;;;61.55;23.13;;;;;;;;;;4952186;28;20043;-79
2021/01/01 10:04:24;;;;;;;67.40;22.27;;;;;;;;;;4960778;28;20113;-79
2021/01/01 10:06:53;;;;;;;62.25;22.35;;;;;;;;;;4959999;28;20449;-79
2021/01/01 10:09:19;;;;;;;60.08;23.02;;;;;;;;;;4964105;28;20129;-79
2021/01/01 10:11:50;;;;;;;64.13;23.27;;;;;;;;;;4965875;28;20047;-79
2021/01/01 10:14:17;;;;;;;66.60;23.17;;;;;;;;;;4960717;28;20083;-79
2021/01/01 10:16:47;;;;;;;57.38;22.33;;;;;;;;;;4962797;28;20081;-79
2021/01/01 10:19:14;;;;;;;62.03;22.80;;;;;;;;;;4960569;28;20082;-79
2021/01/01 10:21:40;;;;;;;53.55;22.92;;;;;;;;;;4952257;28;20469;-79
2021/01/01 10:24:07;;;;;;;57.47;22.40;;;;;;;;;;4957335;28;20079;-79
2021/01/01 10:26:34;;;;;;;60.72;22.98;;;;;;;;;;4962845;28;20106;-79
2021/01/01 10:29:06;;;;;;;67.40;23.90;;;;;;;;;;4960579;28;20133;-87
2021/01/01 10:31:33;;;;;;;66.13;24.08;;;;;;;;;;4971509;28;20697;-88
2021/01/01 10:34:00;;;;;;;69.20;23.20;;;;;;;;;;4953795;28;20544;-89
2021/01/01 10:36:29;;;;;;;69.35;24.42;;;;;;;;;;4962567;28;20314;-88
2021/01/01 10:38:56;;;;;;;69.13;24.83;;;;;;;;;;4970184;28;20171;-89
2021/01/01 10:41:24;;;;;;;75.22;24.52;;;;;;;;;;4977959;28;20059;-89
2021/01/01 10:43:52;;;;;;;63.95;24.02;;;;;;;;;;4967277;28;20047;-87
2021/01/01 10:46:29;;;;;;;72.00;25.17;;;;;;;;;;4959302;28;20051;-90
2021/01/01 10:49:16;;;;;;;;;;;;;;;;;;4962584;28;20087;-88
2021/01/01 10:51:42;;;;;;;75.22;25.15;;;;;;;;;;4956329;28;20299;-88
2021/01/01 10:54:10;;;;;;;69.45;23.15;;;;;;;;;;4960579;28;20043;-85
2021/01/01 10:56:38;;;;;;;71.28;25.30;;;;;;;;;;4967227;28;20058;-82
2021/01/01 10:59:20;;;;;;;63.25;22.73;;;;;;;;;;4955756;28;20074;-82
2021/01/01 11:01:47;;;;;;;70.35;23.05;;;;;;;;;;4954328;28;21737;-84
2021/01/01 11:04:20;;;;;;;62.47;22.17;;;;;;;;;;4962281;28;20058;-84
2021/01/01 11:06:47;;;;;;;72.10;24.77;;;;;;;;;;4966076;28;20051;-84
2021/01/01 11:09:14;;;;;;;69.20;23.52;;;;;;;;;;4961847;28;20055;-85
2021/01/01 11:12:07;;;;;;;71.10;23.90;;;;;;;;;;4958757;28;20457;-84
2021/01/01 12:21:22;;;;;;;69.45;22.05;;;;;;;;;;4947051;29;20090;-80
2021/01/01 12:26:39;;;;;;;65.28;21.02;;;;;;;;;;4944760;28;20102;-81
2021/01/01 12:29:07;;;;;;;63.35;20.40;;;;;;;;;;4941440;29;20417;-77
2021/01/01 12:31:36;;;;;;;53.03;18.65;;;;;;;;;;4946584;29;20066;-79
2021/01/01 12:34:05;;;;;;;53.83;19.00;;;;;;;;;;4947265;28;20134;-85
2021/01/01 12:36:32;;;;;;;59.53;19.92;;;;;;;;;;4951584;28;20640;-80
2021/01/01 12:39:00;;;;;;;55.08;18.58;;;;;;;;;;4963506;28;20063;-78
2021/01/01 12:41:28;;;;;;;58.03;18.92;;;;;;;;;;4962156;28;20051;-79
2021/01/01 12:43:54;;;;;;;57.75;17.80;;;;;;;;;;4956388;28;20051;-80
2021/01/01 12:46:24;;;;;;;55.45;18.48;;;;;;;;;;4957198;28;20525;-80
2021/01/01 12:48:51;;;;;;;54.30;18.48;;;;;;;;;;4960900;28;20133;-81
2021/01/01 12:51:18;;;;;;;52.08;18.27;;;;;;;;;;4961160;28;20043;-81
2021/01/01 12:53:44;;;;;;;60.13;18.67;;;;;;;;;;4963304;28;20093;-81
2021/01/01 12:56:11;;;;;;;53.70;17.45;;;;;;;;;;4960860;28;20153;-81
2021/01/01 12:58:38;;;;;;;49.78;18.20;;;;;;;;;;4960352;28;20055;-81
2021/01/01 13:01:05;;;;;;;57.08;18.38;;;;;;;;;;4954173;28;20086;-80
2021/01/01 13:03:31;;;;;;;53.42;17.42;;;;;;;;;;4949997;28;20125;-81
2021/01/01 13:06:00;;;;;;;56.88;17.40;;;;;;;;;;4960981;28;20448;-81
2021/01/01 13:08:27;;;;;;;44.97;15.45;;;;;;;;;;4960775;28;20065;-81
2021/01/01 13:10:53;;;;;;;47.97;16.42;;;;;;;;;;4959597;28;20055;-80
2021/01/01 13:13:21;;;;;;;56.00;17.88;;;;;;;;;;4957263;28;20158;-80
2021/01/01 13:15:48;;;;;;;56.65;19.05;;;;;;;;;;4958628;28;20114;-81
2021/01/01 13:18:15;;;;;;;52.40;18.27;;;;;;;;;;4960538;28;20046;-81
2021/01/01 13:20:42;;;;;;;49.15;18.02;;;;;;;;;;4960882;28;20086;-81
2021/01/01 13:23:09;;;;;;;60.10;19.73;;;;;;;;;;4953712;28;20117;-81
2021/01/01 13:25:37;;;;;;;62.35;19.20;;;;;;;;;;4953600;28;20225;-81
2021/01/01 13:28:07;;;;;;;62.58;19.33;;;;;;;;;;4960801;28;20050;-81
2021/01/01 13:30:34;;;;;;;56.78;20.30;;;;;;;;;;4957498;28;20500;-81
2021/01/01 13:33:01;;;;;;;52.33;19.35;;;;;;;;;;4949723;28;20092;-81
2021/01/01 13:35:28;;;;;;;63.15;20.10;;;;;;;;;;4964236;28;20152;-82
2021/01/01 13:37:55;;;;;;;65.70;19.83;;;;;;;;;;4961000;28;20047;-81
2021/01/01 13:40:24;;;;;;;59.83;18.80;;;;;;;;;;4961396;28;20038;-81
2021/01/01 13:42:51;;;;;;;59.15;18.88;;;;;;;;;;4961021;28;20089;-81
2021/01/01 13:45:18;;;;;;;55.38;18.08;;;;;;;;;;4960379;28;20078;-82
2021/01/01 13:47:45;;;;;;;57.17;18.45;;;;;;;;;;4960138;28;20500;-81
2021/01/01 13:50:12;;;;;;;64.03;18.20;;;;;;;;;;4959841;28;20090;-81
2021/01/01 13:52:38;;;;;;;54.08;17.35;;;;;;;;;;4960737;28;20103;-83
2021/01/01 13:55:05;;;;;;;59.40;18.98;;;;;;;;;;4960199;28;20039;-82
2021/01/01 13:57:32;;;;;;;56.92;19.00;;;;;;;;;;4957065;28;20504;-81
2021/01/01 14:00:01;;;;;;;49.97;17.65;;;;;;;;;;4957159;28;20063;-81
2021/01/01 14:02:31;;;;;;;57.20;17.33;;;;;;;;;;4949651;28;20086;-81
2021/01/01 14:04:58;;;;;;;50.85;19.10;;;;;;;;;;4962740;28;20077;-82
2021/01/01 14:07:24;;;;;;;63.22;19.92;;;;;;;;;;4962512;28;20047;-82
2021/01/01 14:09:51;;;;;;;62.63;20.40;;;;;;;;;;4960997;28;20070;-82
2021/01/01 14:12:18;;;;;;;51.40;18.15;;;;;;;;;;4960304;28;20044;-83
2021/01/01 14:14:51;;;;;;;58.55;19.35;;;;;;;;;;4961816;28;20074;-82
2021/01/01 14:17:17;;;;;;;81.47;25.85;;;;;;;;;;4964139;28;20043;-80
2021/01/01 14:19:46;;;;;;;70.63;25.00;;;;;;;;;;4957179;28;20119;-82
2021/01/01 14:22:14;;;;;;;66.15;20.50;;;;;;;;;;4960229;28;20046;-88
2021/01/01 14:25:12;;;;;;;62.80;20.33;;;;;;;;;;4943480;29;20068;-90
2021/01/01 14:28:19;;;;;;;66.15;24.38;;;;;;;;;;4963607;28;20055;-87
2021/01/01 14:30:53;;;;;;;66.93;21.08;;;;;;;;;;4965591;28;20369;-87
2021/01/01 14:33:52;;;;;;;66.55;19.80;;;;;;;;;;4949993;28;20050;-93
2021/01/01 14:36:59;;;;;;;;;;;;;;;;;;;;;
2021/01/01 14:39:29;;;;;;;116.25;37.28;;;;;;;;;;4964704;28;20055;-91
2021/01/01 14:42:09;;;;;;;73.90;23.88;;;;;;;;;;4958179;29;20055;-88
2021/01/01 14:45:04;;;;;;;61.60;20.48;;;;;;;;;;4969984;28;20047;-87
2021/01/01 14:47:42;;;;;;;180.43;51.53;;;;;;;;;;4959483;28;20090;-89
2021/01/01 14:50:41;;;;;;;72.85;23.00;;;;;;;;;;4964832;28;20126;-91
2021/01/01 15:00:09;;;;;;;63.20;20.00;;;;;;;;;;4944909;29;20042;-93
2021/01/01 15:02:40;;;;;;;61.60;18.77;;;;;;;;;;4924211;29;20062;-85
2021/01/01 15:05:13;;;;;;;55.67;18.00;;;;;;;;;;4930533;29;20075;-86
2021/01/01 15:07:53;;;;;;;61.55;19.38;;;;;;;;;;4963693;28;20097;-87
2021/01/01 15:10:21;;;;;;;66.10;18.35;;;;;;;;;;4969937;28;20150;-92
2021/01/01 15:12:51;;;;;;;59.28;18.83;;;;;;;;;;4961349;28;20057;-85
2021/01/01 15:18:51;;;;;;;59.72;19.48;;;;;;;;;;4966240;28;20066;-91
2021/01/01 15:21:24;;;;;;;55.63;17.38;;;;;;;;;;4975363;28;20051;-85
2021/01/01 15:23:58;;;;;;;60.92;19.35;;;;;;;;;;4948881;29;20055;-90
2021/01/01 15:26:35;;;;;;;64.65;20.77;;;;;;;;;;4969909;29;20036;-90
2021/01/01 15:29:37;;;;;;;65.22;19.73;;;;;;;;;;4973030;29;20047;-85
2021/01/01 15:35:18;;;;;;;64.88;20.40;;;;;;;;;;4948159;29;20047;-89
2021/01/01 15:54:53;;;;;;;;;;;;;;;;;;;;;
2021/01/01 16:00:44;;;;;;;54.33;17.58;;;;;;;;;;5071383;23;20066;-85
2021/01/01 16:03:20;;;;;;;56.25;17.77;;;;;;;;;;4984244;28;20106;-84
2021/01/01 16:05:58;;;;;;;52.30;16.15;;;;;;;;;;4969206;28;20579;-84
2021/01/01 16:08:41;;;;;;;50.83;16.67;;;;;;;;;;4964581;28;20093;-81
2021/01/01 16:11:30;;;;;;;48.85;14.57;;;;;;;;;;4972550;28;20360;-82
2021/01/01 16:14:04;;;;;;;54.97;15.60;;;;;;;;;;4974285;28;20399;-83
2021/01/01 16:16:35;;;;;;;;;;;;;;;;;;4975704;28;20443;-84